Bassano, Canada
Current Conditions -  °F | °C
As of 3:00 AM on Saturday 20 Dec 2014 (Local Time) from CYYC Reporting Station
Few Clouds Few Clouds  
Wind Chill: -2°   Ceiling: Unl
Heat Index:   Visibility: 15mi
Dew Point: -10°   Wind: 15mph
Humidity: 38%   Direction: 270°W
Pressure: 29.71"   Gusts: NA
Location:  50.78°N, 112.47°W
Report Text: CYYC 201000Z 27013KT 15SM FEW220 03/M10 A2971 RMK CI1 CI TR SLP096
Loading
Personal Weather Stations






























Interactive Weather Map New forecast layout! Learn more

10-Day Weather Forecast

Advertisements
Track Severe Weather on mobile